Time;durP1;ratioP1;P1;durP2;ratioP2;P2;SDS_P1;SDS_P2;PMS_P1;PMS_P2;Temp;Humidity;BMP_temperature;BMP_pressure;BME280_temperature;BME280_humidity;BME280_pressure;Samples;Min_cycle;Max_cycle;Signal;HPM_P1;HPM_P2
2023/12/19 03:01:33;;;;;;;12.70;7.00;;;;;;;6.10;73.30;99460.86;106785;1305;544883;-50
2023/12/19 03:03:58;;;;;;;15.20;7.70;;;;;;;6.10;73.00;99449.02;107281;1304;22338;-49
2023/12/19 03:06:24;;;;;;;12.20;7.70;;;;;;;6.12;73.14;99453.31;107297;1313;23109;-50
2023/12/19 03:08:50;;;;;;;12.80;7.20;;;;;;;6.10;72.40;99442.57;107310;1313;22298;-50
2023/12/19 03:11:15;;;;;;;15.40;7.40;;;;;;;6.09;71.58;99440.88;107332;1313;22501;-51
2023/12/19 03:13:41;;;;;;;15.50;7.40;;;;;;;6.08;71.67;99439.85;107256;1291;23138;-45
2023/12/19 03:16:06;;;;;;;11.30;6.90;;;;;;;6.09;71.93;99437.23;107312;1291;146871;-47
2023/12/19 03:18:31;;;;;;;18.80;7.50;;;;;;;6.09;72.43;99442.44;107686;1309;22322;-49
2023/12/19 03:20:57;;;;;;;10.40;6.40;;;;;;;6.08;72.55;99434.82;107756;1290;22495;-47
2023/12/19 03:23:23;;;;;;;16.60;7.60;;;;;;;6.02;71.75;99431.89;107725;1309;22339;-48
2023/12/19 03:25:49;;;;;;;14.50;7.20;;;;;;;6.04;72.08;99439.15;107743;1309;22410;-50
2023/12/19 03:28:14;;;;;;;13.40;7.60;;;;;;;6.03;71.82;99432.21;107752;1309;22269;-47
2023/12/19 03:30:40;;;;;;;15.30;7.70;;;;;;;5.99;71.19;99427.13;107762;1285;22871;-49
2023/12/19 03:33:05;;;;;;;11.90;7.60;;;;;;;5.99;71.66;99428.70;107758;1291;22274;-48
2023/12/19 03:35:31;;;;;;;16.50;8.00;;;;;;;5.98;71.85;99418.61;107738;1308;22512;-47
2023/12/19 03:37:56;;;;;;;12.00;7.00;;;;;;;5.96;70.84;99411.38;107747;1309;22499;-47
2023/12/19 03:40:21;;;;;;;13.80;7.60;;;;;;;5.95;70.61;99405.14;107754;1290;22244;-46
2023/12/19 03:42:47;;;;;;;13.20;6.70;;;;;;;5.96;71.70;99404.59;107757;1309;23087;-46
2023/12/19 03:45:13;;;;;;;16.10;7.10;;;;;;;5.94;71.55;99402.02;107786;1285;22236;-48
2023/12/19 03:47:39;;;;;;;13.70;7.30;;;;;;;5.95;71.96;99413.14;107750;1308;23167;-48
2023/12/19 03:50:05;;;;;;;14.70;7.70;;;;;;;5.96;72.08;99413.82;107741;1291;22401;-48
2023/12/19 03:52:30;;;;;;;15.40;7.10;;;;;;;5.95;71.36;99428.11;107759;1294;22818;-51
2023/12/19 03:54:56;;;;;;;13.30;6.90;;;;;;;5.92;70.88;99434.09;107741;1308;22290;-45
2023/12/19 03:57:21;;;;;;;12.60;7.00;;;;;;;5.91;71.45;99435.54;107755;1285;23030;-47
2023/12/19 03:59:47;;;;;;;13.70;7.90;;;;;;;5.88;70.75;99431.45;107753;1309;22430;-50
2023/12/19 04:02:12;;;;;;;11.50;7.20;;;;;;;5.87;71.46;99429.25;107769;1309;22305;-51
2023/12/19 04:04:38;;;;;;;11.10;6.40;;;;;;;5.85;71.50;99414.52;107751;1309;23193;-46
2023/12/19 04:07:03;;;;;;;11.40;6.60;;;;;;;5.81;71.10;99410.48;107766;1291;22234;-49
2023/12/19 04:09:28;;;;;;;13.50;6.60;;;;;;;5.77;71.15;99401.70;107732;1291;22388;-50
2023/12/19 04:11:54;;;;;;;11.50;7.20;;;;;;;5.75;71.46;99396.55;107715;1288;22247;-48
2023/12/19 04:14:19;;;;;;;14.40;7.20;;;;;;;5.73;71.32;99390.90;107710;1309;22445;-49
2023/12/19 04:16:44;;;;;;;13.30;7.80;;;;;;;5.69;71.05;99396.77;107710;1309;22252;-48
2023/12/19 04:19:10;;;;;;;12.90;7.80;;;;;;;5.65;70.66;99404.93;107703;1309;22270;-44
2023/12/19 04:21:36;;;;;;;13.40;7.00;;;;;;;5.65;71.55;99404.93;107718;1307;22228;-48
2023/12/19 04:24:03;;;;;;;13.30;6.80;;;;;;;5.64;71.49;99407.05;107715;1309;22420;-45
2023/12/19 04:26:28;;;;;;;12.60;6.30;;;;;;;5.66;71.72;99410.10;107725;1309;22399;-46
2023/12/19 04:28:53;;;;;;;11.60;6.70;;;;;;;5.67;72.36;99423.61;107757;1288;22297;-51
2023/12/19 04:31:19;;;;;;;15.10;6.30;;;;;;;5.69;72.08;99427.89;107715;1289;23057;-47
2023/12/19 04:33:44;;;;;;;13.20;6.40;;;;;;;5.70;71.67;99422.33;107710;1287;22105;-47
2023/12/19 04:36:09;;;;;;;16.20;7.20;;;;;;;5.71;72.26;99413.23;107732;1290;22691;-50
2023/12/19 04:38:35;;;;;;;12.70;6.30;;;;;;;5.73;72.17;99424.11;107732;1289;22122;-50
2023/12/19 04:41:01;;;;;;;15.30;7.30;;;;;;;5.74;71.91;99423.91;107730;1309;22380;-43
2023/12/19 04:43:26;;;;;;;11.00;6.50;;;;;;;5.76;72.25;99422.45;107741;1309;22246;-44
2023/12/19 04:45:51;;;;;;;14.60;6.70;;;;;;;5.76;72.55;99413.42;107713;1288;23011;-47
2023/12/19 04:48:17;;;;;;;15.00;7.00;;;;;;;5.73;72.02;99408.13;107707;1309;22274;-46
2023/12/19 04:50:42;;;;;;;13.40;6.60;;;;;;;5.72;72.65;99405.20;107703;1297;22994;-47
2023/12/19 04:53:08;;;;;;;12.30;6.40;;;;;;;5.70;72.56;99400.92;107762;1289;23139;-45
2023/12/19 04:55:33;;;;;;;14.90;6.80;;;;;;;5.67;72.16;99396.86;107710;1309;22237;-46
2023/12/19 04:57:58;;;;;;;13.00;7.20;;;;;;;5.62;71.62;99391.45;107707;1292;22429;-46
2023/12/19 05:00:24;;;;;;;21.50;7.10;;;;;;;5.60;71.22;99387.86;107711;1288;22420;-47
2023/12/19 05:02:49;;;;;;;11.70;6.60;;;;;;;5.60;71.59;99389.42;107715;1291;22286;-49
2023/12/19 05:05:14;;;;;;;12.80;6.40;;;;;;;5.59;71.99;99388.41;107720;1309;22226;-44
2023/12/19 05:07:39;;;;;;;14.20;6.40;;;;;;;5.56;71.96;99384.67;107733;1309;22225;-44
2023/12/19 05:10:05;;;;;;;14.00;7.40;;;;;;;5.56;72.39;99395.30;107698;1309;22511;-46
2023/12/19 05:12:30;;;;;;;12.80;6.20;;;;;;;5.54;71.82;99400.04;107736;1309;22720;-49
2023/12/19 05:14:56;;;;;;;14.80;6.70;;;;;;;5.55;72.17;99409.58;107729;1309;23006;-49
2023/12/19 05:17:21;;;;;;;13.00;6.60;;;;;;;5.55;71.95;99415.00;107703;1288;22407;-49
2023/12/19 05:19:46;;;;;;;11.90;6.90;;;;;;;5.55;72.05;99416.55;107714;1300;23225;-48
2023/12/19 05:22:11;;;;;;;14.40;6.90;;;;;;;5.56;72.04;99416.34;107713;1290;22215;-48
2023/12/19 05:24:38;;;;;;;12.60;6.80;;;;;;;5.56;71.77;99413.90;107703;1309;23121;-51
2023/12/19 05:27:06;;;;;;;13.50;6.70;;;;;;;5.57;71.64;99414.23;107749;1288;22275;-46
2023/12/19 05:29:32;;;;;;;9.70;6.30;;;;;;;5.58;71.19;99419.05;107733;1288;22195;-49
2023/12/19 05:31:57;;;;;;;14.50;7.00;;;;;;;5.63;71.51;99419.95;107697;1309;22398;-49
2023/12/19 05:34:22;;;;;;;10.40;6.80;;;;;;;5.66;71.08;99411.13;107694;1309;22242;-45
2023/12/19 05:36:48;;;;;;;13.10;6.50;;;;;;;5.71;71.08;99407.16;107730;1290;22906;-48
2023/12/19 05:39:13;;;;;;;10.70;6.20;;;;;;;5.76;71.58;99398.98;107743;1288;22265;-51
2023/12/19 05:41:39;;;;;;;16.30;6.30;;;;;;;5.79;70.65;99396.98;107711;1309;22212;-47
2023/12/19 05:44:04;;;;;;;12.30;6.30;;;;;;;5.83;71.06;99393.54;107730;1309;24418;-50
2023/12/19 05:46:29;;;;;;;25.60;6.30;;;;;;;5.87;71.09;99386.41;107717;1309;22401;-48
2023/12/19 05:48:55;;;;;;;12.70;6.50;;;;;;;5.92;70.25;99376.16;107727;1291;23052;-47
2023/12/19 05:51:20;;;;;;;14.20;5.50;;;;;;;5.95;68.89;99373.65;107723;1309;22224;-48
2023/12/19 05:53:45;;;;;;;9.60;5.10;;;;;;;6.00;69.07;99366.02;107708;1291;23430;-53
2023/12/19 05:56:15;;;;;;;12.30;5.50;;;;;;;6.03;68.66;99360.17;107689;1289;22226;-47
2023/12/19 05:58:40;;;;;;;18.30;9.30;;;;;;;6.07;67.95;99361.41;107699;1309;22239;-51
2023/12/19 06:01:05;;;;;;;9.70;5.60;;;;;;;6.14;68.90;99356.64;107683;1288;22556;-49
2023/12/19 06:03:30;;;;;;;12.80;6.70;;;;;;;6.19;68.46;99371.10;107717;1287;22412;-47
2023/12/19 06:05:56;;;;;;;15.40;5.40;;;;;;;6.23;68.09;99375.30;107678;1309;22960;-45
2023/12/19 06:08:22;;;;;;;13.60;7.00;;;;;;;6.27;67.41;99366.60;107693;1309;22482;-45
2023/12/19 06:10:47;;;;;;;10.00;5.20;;;;;;;6.31;67.60;99357.92;107702;1285;22312;-54
2023/12/19 06:13:13;;;;;;;20.70;8.60;;;;;;;6.37;67.86;99349.53;107689;1309;22240;-50
2023/12/19 06:15:38;;;;;;;44.20;17.60;;;;;;;6.40;67.92;99354.64;107723;1309;22402;-52
2023/12/19 06:18:04;;;;;;;14.00;7.80;;;;;;;6.42;67.74;99354.73;107694;1288;22243;-46
2023/12/19 06:20:29;;;;;;;10.80;5.60;;;;;;;6.46;68.12;99357.05;107693;1285;22980;-49
2023/12/19 06:22:54;;;;;;;13.80;5.80;;;;;;;6.51;68.18;99358.91;107676;1294;22413;-47
2023/12/19 06:25:20;;;;;;;7.00;4.90;;;;;;;6.54;67.85;99344.71;107699;1309;23275;-49
2023/12/19 06:27:45;;;;;;;11.90;4.70;;;;;;;6.55;67.72;99355.45;107691;1309;22236;-52
2023/12/19 06:30:11;;;;;;;7.90;5.00;;;;;;;6.59;68.17;99361.09;107723;1288;24200;-49
2023/12/19 06:32:36;;;;;;;10.80;5.30;;;;;;;6.60;67.91;99364.86;107717;1295;22537;-47
2023/12/19 06:35:04;;;;;;;8.20;4.50;;;;;;;6.62;68.39;99363.20;107682;1309;22236;-51
2023/12/19 06:37:29;;;;;;;9.30;4.80;;;;;;;6.62;67.77;99363.39;107693;1288;22410;-51
2023/12/19 06:39:54;;;;;;;8.30;5.10;;;;;;;6.64;68.30;99352.51;107709;1309;23125;-47
2023/12/19 06:42:21;;;;;;;8.40;4.60;;;;;;;6.64;68.52;99348.49;107686;1286;23071;-53
2023/12/19 06:44:47;;;;;;;11.60;4.70;;;;;;;6.67;68.35;99344.73;107693;1309;22246;-48
2023/12/19 06:47:14;;;;;;;13.80;4.90;;;;;;;6.70;68.70;99356.64;107677;1291;22480;-51
2023/12/19 06:49:39;;;;;;;10.60;5.10;;;;;;;6.67;67.79;99348.92;107703;1309;22407;-49
2023/12/19 06:52:05;;;;;;;7.80;4.80;;;;;;;6.69;67.84;99343.27;107694;1288;22408;-48
2023/12/19 06:54:32;;;;;;;9.30;4.60;;;;;;;6.73;68.35;99340.84;107712;1309;22221;-48
2023/12/19 06:56:57;;;;;;;7.80;4.00;;;;;;;6.75;68.24;99348.25;107704;1309;22249;-48
2023/12/19 06:59:22;;;;;;;7.60;4.10;;;;;;;6.77;68.03;99354.11;107691;1309;22457;-49
2023/12/19 07:01:48;;;;;;;6.60;4.00;;;;;;;6.79;68.10;99355.94;107696;1291;22816;-52
2023/12/19 07:04:13;;;;;;;9.00;4.00;;;;;;;6.82;68.11;99348.34;107704;1309;22226;-51
2023/12/19 07:06:38;;;;;;;7.20;4.20;;;;;;;6.84;68.29;99331.54;107703;1309;23128;-51
2023/12/19 07:09:04;;;;;;;8.10;4.20;;;;;;;6.84;67.53;99333.11;107709;1288;22236;-48
2023/12/19 07:11:30;;;;;;;6.70;4.10;;;;;;;6.85;68.10;99347.33;107733;1291;22599;-46
2023/12/19 07:13:55;;;;;;;8.20;4.60;;;;;;;6.84;67.63;99365.51;107707;1309;22959;-48
2023/12/19 07:16:21;;;;;;;11.90;4.10;;;;;;;6.88;68.39;99353.85;107702;1287;22287;-47
2023/12/19 07:18:47;;;;;;;7.10;3.70;;;;;;;6.89;68.89;99356.61;107728;1309;22330;-48
2023/12/19 07:21:23;;;;;;;8.00;4.60;;;;;;;6.88;68.07;99358.71;107675;1309;22485;-48
2023/12/19 07:23:53;;;;;;;8.30;5.30;;;;;;;6.92;68.65;99357.89;107694;1309;22287;-51
2023/12/19 07:26:20;;;;;;;13.20;5.60;;;;;;;6.95;69.11;99350.63;107711;1309;22374;-50
2023/12/19 07:28:45;;;;;;;7.80;4.60;;;;;;;6.96;68.88;99360.70;107684;1309;23180;-50
2023/12/19 07:31:28;;;;;;;12.20;5.00;;;;;;;6.94;68.72;99369.30;107677;1309;22289;-52
2023/12/19 07:34:03;;;;;;;13.90;6.40;;;;;;;6.98;69.18;99364.30;107714;1309;22893;-48
2023/12/19 07:36:29;;;;;;;14.00;6.80;;;;;;;6.97;68.89;99365.72;107692;1309;22472;-50
2023/12/19 07:38:55;;;;;;;19.80;7.80;;;;;;;6.99;69.58;99357.95;107691;1309;22284;-46
2023/12/19 07:41:20;;;;;;;12.40;5.90;;;;;;;7.01;70.00;99349.67;107699;1291;22245;-46
2023/12/19 07:43:46;;;;;;;17.60;6.00;;;;;;;6.99;70.09;99342.44;107688;1291;22228;-47
2023/12/19 07:46:13;;;;;;;12.20;5.30;;;;;;;7.01;70.75;99337.66;107681;1309;23231;-48
2023/12/19 07:48:39;;;;;;;13.60;5.10;;;;;;;7.04;71.29;99335.44;107707;1289;22456;-49
2023/12/19 07:51:05;;;;;;;12.70;6.20;;;;;;;7.03;71.51;99330.59;107689;1309;22232;-50
2023/12/19 07:53:30;;;;;;;13.00;5.50;;;;;;;7.03;71.73;99326.27;107709;1289;22266;-50
2023/12/19 07:55:59;;;;;;;22.40;7.60;;;;;;;7.02;72.00;99327.70;107693;1309;22283;-45
2023/12/19 07:58:24;;;;;;;18.80;7.00;;;;;;;7.02;72.27;99325.45;107720;1309;22236;-52
2023/12/19 08:00:49;;;;;;;19.50;6.00;;;;;;;7.04;72.49;99322.03;107697;1291;22440;-48
2023/12/19 08:03:18;;;;;;;19.10;6.80;;;;;;;7.06;72.82;99318.64;107705;1288;23165;-50
2023/12/19 08:05:50;;;;;;;26.70;8.80;;;;;;;7.07;72.98;99323.80;107697;1309;22236;-46
2023/12/19 08:08:18;;;;;;;22.80;7.60;;;;;;;7.06;72.75;99321.24;107706;1309;22277;-50
2023/12/19 08:10:45;;;;;;;17.90;7.40;;;;;;;7.08;73.00;99324.47;107727;1290;22412;-45
2023/12/19 08:13:10;;;;;;;16.10;7.10;;;;;;;7.12;73.48;99325.04;107697;1309;22297;-48
2023/12/19 08:15:35;;;;;;;20.80;7.60;;;;;;;7.11;73.80;99315.64;107694;1292;22208;-47
2023/12/19 08:18:01;;;;;;;17.10;7.20;;;;;;;7.09;74.43;99321.12;107704;1291;22989;-52
2023/12/19 08:20:26;;;;;;;26.00;9.70;;;;;;;7.07;75.28;99320.70;107697;1291;22284;-44
2023/12/19 08:22:51;;;;;;;23.40;9.00;;;;;;;7.06;75.97;99326.47;107672;1309;22880;-47
2023/12/19 08:25:17;;;;;;;17.10;7.50;;;;;;;7.11;76.20;99339.52;107672;1309;22418;-46
2023/12/19 08:27:42;;;;;;;14.30;6.00;;;;;;;7.16;76.19;99338.27;107700;1304;23058;-51
2023/12/19 08:30:08;;;;;;;21.20;7.90;;;;;;;7.21;76.25;99346.27;107715;1291;22330;-52
2023/12/19 08:32:33;;;;;;;13.70;5.40;;;;;;;7.25;76.07;99345.59;107713;1294;22280;-48
2023/12/19 08:34:58;;;;;;;14.50;5.70;;;;;;;7.33;76.44;99344.22;107699;1302;22416;-48
2023/12/19 08:37:25;;;;;;;9.60;4.90;;;;;;;7.40;76.31;99340.59;107714;1293;22245;-50
2023/12/19 08:39:54;;;;;;;9.90;5.20;;;;;;;7.44;76.50;99339.55;107690;1291;22262;-47
2023/12/19 08:42:20;;;;;;;9.20;5.10;;;;;;;7.49;76.49;99340.41;107674;1304;23107;-51
2023/12/19 08:44:45;;;;;;;11.60;5.40;;;;;;;7.49;76.44;99340.77;107720;1286;22282;-46
2023/12/19 08:47:11;;;;;;;10.30;5.50;;;;;;;7.51;76.46;99337.03;107695;1291;23041;-48
2023/12/19 08:49:38;;;;;;;12.90;5.50;;;;;;;7.53;76.71;99330.67;107693;1309;22397;-49
2023/12/19 08:52:04;;;;;;;12.20;6.00;;;;;;;7.54;76.66;99326.77;107716;1299;23007;-50
2023/12/19 08:54:29;;;;;;;9.30;5.20;;;;;;;7.56;76.59;99327.55;107739;1291;22518;-53
2023/12/19 08:56:54;;;;;;;10.80;5.30;;;;;;;7.57;76.23;99324.73;107691;1309;22247;-47
2023/12/19 08:59:19;;;;;;;10.40;4.30;;;;;;;7.60;76.33;99326.17;107708;1304;23278;-48
2023/12/19 09:01:45;;;;;;;6.70;4.40;;;;;;;7.58;75.90;99321.21;107693;1309;22137;-46
2023/12/19 09:04:11;;;;;;;8.20;4.90;;;;;;;7.58;75.95;99317.36;107723;1291;22911;-52
2023/12/19 09:06:36;;;;;;;13.80;5.40;;;;;;;7.63;76.11;99303.53;107705;1290;22389;-53
2023/12/19 09:09:01;;;;;;;12.80;5.50;;;;;;;7.64;75.10;99297.88;107686;1309;23334;-46
2023/12/19 09:11:26;;;;;;;9.90;4.60;;;;;;;7.68;74.80;99295.27;107670;1288;22228;-49
2023/12/19 09:13:52;;;;;;;8.60;5.00;;;;;;;7.72;74.70;99286.40;107679;1309;22825;-50
2023/12/19 09:16:17;;;;;;;8.80;4.50;;;;;;;7.72;73.82;99281.33;107715;1291;22393;-51
2023/12/19 09:18:42;;;;;;;7.80;4.70;;;;;;;7.71;72.91;99282.95;107690;1309;23284;-49
2023/12/19 09:21:09;;;;;;;11.50;5.20;;;;;;;7.70;72.62;99276.36;107714;1291;22275;-55
2023/12/19 09:23:34;;;;;;;10.10;5.20;;;;;;;7.70;73.25;99261.02;107696;1309;23176;-51
2023/12/19 09:25:59;;;;;;;6.70;4.80;;;;;;;7.73;73.47;99248.16;107671;1294;22305;-51
2023/12/19 09:28:29;;;;;;;9.40;5.10;;;;;;;7.76;72.92;99237.70;107720;1290;22232;-49
2023/12/19 09:30:54;;;;;;;9.80;4.60;;;;;;;7.79;72.28;99240.73;107693;1309;22946;-48
2023/12/19 09:33:20;;;;;;;7.00;4.60;;;;;;;7.82;72.31;99244.22;107716;1309;22319;-49
2023/12/19 09:35:45;;;;;;;11.10;4.80;;;;;;;7.81;70.61;99243.61;107685;1309;22912;-49
2023/12/19 09:38:10;;;;;;;10.70;4.80;;;;;;;7.82;70.53;99233.58;107681;1309;22399;-51
2023/12/19 09:40:36;;;;;;;11.00;5.30;;;;;;;7.84;70.29;99237.67;107684;1309;23840;-54
2023/12/19 09:43:02;;;;;;;8.30;4.90;;;;;;;7.83;69.74;99239.83;107695;1309;22246;-50
2023/12/19 09:45:27;;;;;;;9.30;4.80;;;;;;;7.82;69.93;99238.49;107716;1309;22569;-47
2023/12/19 09:47:59;;;;;;;11.70;5.30;;;;;;;7.80;68.95;99249.56;107681;1291;22392;-48
2023/12/19 09:50:27;;;;;;;10.50;4.80;;;;;;;7.81;69.96;99254.04;107701;1309;22236;-49
2023/12/19 09:52:55;;;;;;;11.30;5.50;;;;;;;7.80;69.11;99257.59;107702;1309;22453;-48
2023/12/19 09:55:21;;;;;;;8.10;5.20;;;;;;;7.81;68.80;99259.14;107564;1291;22369;-51
2023/12/19 09:57:48;;;;;;;9.30;5.30;;;;;;;7.80;68.97;99248.85;107545;1291;22247;-50
2023/12/19 10:00:14;;;;;;;9.80;5.10;;;;;;;7.78;68.00;99247.58;107538;1310;23016;-47
2023/12/19 10:02:41;;;;;;;8.70;5.20;;;;;;;7.77;67.02;99242.02;107514;1300;22249;-48
2023/12/19 10:05:08;;;;;;;12.80;5.70;;;;;;;7.76;67.17;99235.08;107532;1291;22692;-45
2023/12/19 10:07:34;;;;;;;13.00;5.50;;;;;;;7.75;66.92;99230.42;107543;1310;22486;-47
2023/12/19 10:09:59;;;;;;;11.60;5.60;;;;;;;7.73;66.31;99226.16;107532;1296;23077;-50
2023/12/19 10:12:27;;;;;;;11.90;5.40;;;;;;;7.73;66.69;99222.14;107523;1310;22397;-47
2023/12/19 10:15:22;;;;;;;9.60;5.30;;;;;;;7.78;67.05;99225.23;107547;1310;22227;-47
2023/12/19 10:18:03;;;;;;;7.50;5.10;;;;;;;7.87;66.54;99226.39;107129;1297;22407;-50
2023/12/19 10:20:29;;;;;;;7.70;5.40;;;;;;;7.91;65.86;99228.50;107130;1294;22248;-48
2023/12/19 10:23:04;;;;;;;10.50;5.10;;;;;;;7.89;65.91;99215.83;107102;1316;22340;-47
2023/12/19 10:25:31;;;;;;;9.70;5.40;;;;;;;7.90;65.85;99215.95;107139;1297;22400;-47
2023/12/19 10:28:09;;;;;;;11.30;5.60;;;;;;;7.96;66.36;99209.60;107123;1297;22334;-50
2023/12/19 10:30:38;;;;;;;8.40;5.00;;;;;;;7.96;65.82;99207.30;107115;1315;22258;-47
2023/12/19 10:33:04;;;;;;;11.50;5.50;;;;;;;8.00;66.01;99196.30;107127;1297;22364;-50
2023/12/19 10:35:39;;;;;;;13.20;6.00;;;;;;;8.02;65.32;99189.92;107131;1298;24163;-51
2023/12/19 10:38:05;;;;;;;9.50;4.80;;;;;;;8.04;65.29;99186.49;107128;1301;22993;-46
2023/12/19 10:40:31;;;;;;;9.90;5.40;;;;;;;8.07;64.99;99186.55;107119;1306;22454;-48
2023/12/19 10:42:57;;;;;;;9.40;4.30;;;;;;;8.10;64.74;99183.81;107173;1305;22481;-51
2023/12/19 10:45:24;;;;;;;11.30;5.00;;;;;;;8.13;64.75;99184.55;107204;1295;22245;-49
2023/12/19 10:47:49;;;;;;;11.90;5.20;;;;;;;8.13;64.64;99189.08;107159;1315;23487;-46
2023/12/19 10:50:15;;;;;;;6.90;4.00;;;;;;;8.13;64.37;99190.98;107187;1300;22261;-50
2023/12/19 10:52:43;;;;;;;9.90;4.10;;;;;;;8.13;64.86;99185.09;107192;1314;22280;-52
2023/12/19 10:55:11;;;;;;;11.10;4.40;;;;;;;8.11;64.72;99177.48;107459;1291;22513;-48
2023/12/19 10:57:37;;;;;;;6.90;4.40;;;;;;;8.07;64.47;99168.01;107549;1291;22368;-49
2023/12/19 11:00:13;;;;;;;6.80;4.20;;;;;;;8.09;64.76;99167.77;107543;1310;22260;-51
2023/12/19 11:03:25;;;;;;;8.80;5.20;;;;;;;8.06;64.68;99171.74;107594;1289;22357;-47
2023/12/19 11:05:54;;;;;;;12.20;5.40;;;;;;;8.01;64.97;99162.71;107434;1310;22987;-47
2023/12/19 11:08:21;;;;;;;13.00;5.00;;;;;;;7.95;64.91;99155.16;107675;1308;22263;-51
2023/12/19 11:11:10;;;;;;;7.10;5.00;;;;;;;7.96;65.91;99156.68;107690;1295;22226;-45
2023/12/19 11:13:37;;;;;;;7.80;5.10;;;;;;;7.97;67.05;99155.91;107732;1291;22239;-50
2023/12/19 11:16:11;;;;;;;9.50;4.60;;;;;;;7.97;67.61;99153.48;107738;1297;22249;-49
2023/12/19 11:18:49;;;;;;;12.00;4.70;;;;;;;7.96;68.07;99142.56;107740;1289;22304;-49
2023/12/19 11:21:22;;;;;;;7.00;4.60;;;;;;;7.98;68.44;99137.02;107727;1308;22235;-48
2023/12/19 11:24:07;;;;;;;10.60;5.10;;;;;;;7.96;68.96;99137.13;107750;1305;22344;-48
2023/12/19 11:26:39;;;;;;;7.40;4.50;;;;;;;7.98;69.51;99123.23;107647;1291;22261;-48
2023/12/19 11:29:05;;;;;;;10.80;4.20;;;;;;;8.01;69.68;99105.98;107729;1298;22401;-50
2023/12/19 11:31:36;;;;;;;9.70;4.70;;;;;;;8.06;70.00;99107.49;107721;1308;22453;-49
2023/12/19 11:34:23;;;;;;;7.90;4.60;;;;;;;8.06;70.21;99100.70;107733;1308;23150;-48
2023/12/19 11:37:03;;;;;;;9.30;4.20;;;;;;;8.07;71.36;99092.96;107755;1299;22426;-49
2023/12/19 11:39:33;;;;;;;6.70;4.10;;;;;;;8.10;72.06;99092.84;107761;1285;22450;-46
2023/12/19 11:41:59;;;;;;;11.50;4.90;;;;;;;8.10;72.39;99089.30;107722;1299;23042;-48
2023/12/19 11:44:35;;;;;;;9.00;4.50;;;;;;;8.12;72.63;99079.81;107728;1308;22280;-49
2023/12/19 11:47:15;;;;;;;12.20;4.70;;;;;;;8.14;73.43;99079.69;107718;1308;22235;-52
2023/12/19 11:49:40;;;;;;;11.40;5.10;;;;;;;8.18;73.95;99078.13;107435;1308;22253;-50
2023/12/19 11:52:05;;;;;;;10.10;5.10;;;;;;;8.23;74.38;99075.60;107728;1308;22230;-52
2023/12/19 11:54:30;;;;;;;10.30;4.70;;;;;;;8.29;74.39;99074.10;107683;1308;23081;-46
2023/12/19 11:56:58;;;;;;;7.60;4.70;;;;;;;8.31;74.07;99068.55;107704;1299;22270;-53
2023/12/19 11:59:24;;;;;;;8.20;4.80;;;;;;;8.35;73.61;99073.77;107747;1291;22618;-50
2023/12/19 12:01:53;;;;;;;8.40;4.50;;;;;;;8.30;72.39;99071.77;107728;1308;22417;-48
2023/12/19 12:04:19;;;;;;;11.90;4.40;;;;;;;8.32;72.81;99059.77;107737;1299;22251;-49
2023/12/19 12:06:44;;;;;;;9.00;4.90;;;;;;;8.34;72.59;99057.42;107705;1299;22432;-46
2023/12/19 12:09:10;;;;;;;6.70;4.50;;;;;;;8.34;71.95;99052.54;107718;1308;22937;-49
2023/12/19 12:11:46;;;;;;;8.80;5.30;;;;;;;8.34;71.39;99046.77;107742;1308;23223;-54
2023/12/19 12:14:11;;;;;;;7.40;4.30;;;;;;;8.34;71.66;99039.44;107646;1297;22385;-49
2023/12/19 12:16:37;;;;;;;4.90;4.10;;;;;;;8.32;71.17;99039.86;107738;1289;23125;-49
2023/12/19 12:19:13;;;;;;;6.40;3.90;;;;;;;8.31;71.36;99038.70;107724;1287;22287;-51
2023/12/19 12:21:49;;;;;;;5.30;3.70;;;;;;;8.27;71.17;99034.17;107656;1308;23020;-51
2023/12/19 12:24:25;;;;;;;8.40;4.80;;;;;;;8.26;71.40;99038.27;107718;1291;22233;-49
2023/12/19 12:26:51;;;;;;;10.90;4.30;;;;;;;8.24;71.26;99043.73;107720;1308;22283;-54
2023/12/19 12:29:19;;;;;;;9.20;4.80;;;;;;;8.23;71.16;99041.20;107723;1299;22224;-49
2023/12/19 12:31:47;;;;;;;9.50;4.90;;;;;;;8.23;71.21;99032.80;107726;1285;22268;-49
2023/12/19 12:34:14;;;;;;;10.80;4.80;;;;;;;8.20;70.40;99026.31;107734;1299;22278;-50
2023/12/19 12:36:41;;;;;;;10.10;5.10;;;;;;;8.19;70.08;99020.45;107729;1308;22266;-51
2023/12/19 12:39:07;;;;;;;10.40;5.30;;;;;;;8.16;69.60;99014.45;107717;1308;22277;-51
2023/12/19 12:41:32;;;;;;;24.50;9.50;;;;;;;8.16;69.63;99008.17;107715;1301;22257;-54
2023/12/19 12:43:57;;;;;;;16.00;6.30;;;;;;;8.11;68.47;99004.27;107692;1300;22273;-48
2023/12/19 12:46:24;;;;;;;12.00;6.50;;;;;;;8.12;69.42;99001.06;107718;1286;23217;-48
2023/12/19 12:48:52;;;;;;;10.10;5.40;;;;;;;8.09;68.72;99001.00;107704;1295;22270;-47
2023/12/19 12:51:19;;;;;;;10.20;5.10;;;;;;;8.08;68.77;98999.14;107726;1291;22235;-52
2023/12/19 12:53:44;;;;;;;9.20;5.20;;;;;;;8.07;69.29;98985.25;107728;1289;22359;-50
2023/12/19 12:56:15;;;;;;;14.10;5.40;;;;;;;8.10;70.21;98965.54;107731;1305;22709;-48
2023/12/19 12:58:42;;;;;;;10.90;4.60;;;;;;;8.10;70.48;98959.43;107746;1285;22290;-51
2023/12/19 13:01:09;;;;;;;9.70;4.70;;;;;;;8.10;70.95;98959.59;107713;1291;22319;-47
2023/12/19 13:03:34;;;;;;;10.20;5.60;;;;;;;8.10;70.67;98955.77;107739;1308;22425;-49
2023/12/19 13:06:00;;;;;;;12.00;6.00;;;;;;;8.12;70.77;98946.95;107739;1308;23061;-52
2023/12/19 13:08:30;;;;;;;11.20;5.00;;;;;;;8.13;70.76;98944.80;107637;1289;22398;-51
2023/12/19 13:10:57;;;;;;;8.90;5.40;;;;;;;8.13;70.63;98938.84;107714;1285;22234;-51
2023/12/19 13:13:24;;;;;;;10.00;5.60;;;;;;;8.13;70.26;98930.30;107717;1308;22428;-51
2023/12/19 13:15:49;;;;;;;13.00;5.30;;;;;;;8.12;69.86;98926.34;107700;1289;22269;-51
2023/12/19 13:18:14;;;;;;;10.30;5.00;;;;;;;8.11;69.36;98918.52;107675;1302;22518;-52
2023/12/19 13:20:40;;;;;;;15.90;6.50;;;;;;;8.13;69.61;98909.55;107711;1288;22419;-49
2023/12/19 13:23:08;;;;;;;9.90;5.50;;;;;;;8.16;69.73;98903.08;107726;1291;23151;-49
2023/12/19 13:25:36;;;;;;;10.10;5.30;;;;;;;8.18;69.74;98896.69;107721;1297;22253;-49
2023/12/19 13:28:04;;;;;;;15.40;6.20;;;;;;;8.18;69.28;98892.30;107727;1288;23465;-46
2023/12/19 13:30:29;;;;;;;16.30;5.80;;;;;;;8.19;69.16;98885.28;107710;1285;22986;-50
2023/12/19 13:32:55;;;;;;;11.60;5.60;;;;;;;8.21;69.26;98881.16;107731;1289;22238;-51
2023/12/19 13:35:21;;;;;;;11.60;6.20;;;;;;;8.21;68.14;98877.85;107756;1289;23102;-51
2023/12/19 13:37:46;;;;;;;12.00;5.90;;;;;;;8.20;67.36;98875.59;107748;1288;23134;-51
2023/12/19 13:40:12;;;;;;;22.90;7.70;;;;;;;8.22;67.55;98873.95;107754;1288;22484;-49
2023/12/19 13:42:39;;;;;;;17.40;7.90;;;;;;;8.22;67.74;98875.67;107738;1309;22502;-51
2023/12/19 13:45:05;;;;;;;18.70;6.30;;;;;;;8.25;68.01;98877.27;107725;1299;22238;-49
2023/12/19 13:47:31;;;;;;;11.70;6.10;;;;;;;8.26;67.52;98873.37;107761;1294;22393;-45
2023/12/19 13:49:56;;;;;;;16.10;6.70;;;;;;;8.28;67.61;98865.08;107642;1302;22335;-52
2023/12/19 13:52:21;;;;;;;14.80;6.20;;;;;;;8.30;67.42;98857.64;107650;1309;23726;-50
2023/12/19 13:54:47;;;;;;;11.60;6.60;;;;;;;8.31;67.37;98847.30;107702;1308;22232;-48
2023/12/19 13:57:13;;;;;;;20.50;7.10;;;;;;;8.31;67.39;98836.64;107638;1291;22461;-49
2023/12/19 13:59:38;;;;;;;15.50;6.40;;;;;;;8.31;67.36;98833.11;107615;1299;22330;-47
2023/12/19 14:02:06;;;;;;;14.00;8.00;;;;;;;8.31;66.88;98830.51;107601;1310;22232;-49
2023/12/19 14:04:31;;;;;;;15.20;7.30;;;;;;;8.34;67.21;98834.90;107615;1287;22257;-48
2023/12/19 14:06:56;;;;;;;15.10;6.60;;;;;;;8.34;66.33;98835.95;107620;1291;22449;-47
2023/12/19 14:09:21;;;;;;;18.00;6.80;;;;;;;8.36;66.26;98839.01;107619;1299;23156;-49
2023/12/19 14:11:47;;;;;;;15.10;6.20;;;;;;;8.37;66.63;98849.40;107614;1291;23063;-50
2023/12/19 14:14:12;;;;;;;13.00;5.70;;;;;;;8.37;66.34;98854.66;107637;1309;22459;-49
2023/12/19 14:16:37;;;;;;;12.40;6.20;;;;;;;8.38;66.73;98863.69;107607;1310;22230;-51
2023/12/19 14:19:03;;;;;;;12.10;5.50;;;;;;;8.37;65.80;98863.20;107611;1287;23495;-49
2023/12/19 14:21:29;;;;;;;14.10;6.10;;;;;;;8.34;65.20;98849.91;107616;1310;22843;-52
2023/12/19 14:23:54;;;;;;;11.60;6.10;;;;;;;8.36;65.79;98851.17;107609;1310;23226;-48
2023/12/19 14:26:19;;;;;;;14.40;5.80;;;;;;;8.36;65.34;98852.61;107609;1310;23494;-51